PWSweather.com
Personal Weather Stations
Station Observations
WD4JKH
Forsyth, GA 31029

Forsyth, GA 31029

Lat: 33.033225, Lon: -83.927995

Elevation: 709

Station Type: Davis Vantage VUE

High Low Average
Temperature 70.9°F21.6°C 62.2°F16.8°C 66.0°F18.9°C
Dew Point 68.6°F20.3°C 61.6°F16.4°C 65.1°F18.4°C
Winds 5.4 mph 8.7 kmh Calm Calm 1.0 mph WSW1.6 kmh WSW
Wind Gusts 14.0 mph22.5 kmh -- 5.0 mph8.0 kmh
Humidity 99% 89% 97%
Pressure 30.16 in1021.3 mb 30.03 in1016.9 mb -
Precipitation 0.17 in4.3 mm - -
Hour Temp Dew Point Humidity Winds Wind Gusts Pressure Precip Precip Rate Daily Precip Total
12:01 AM 66.8°F19.3°C 63.5°F17.5°C 89% 4.3 mph SW6.9 kmh SW 14.0 mph22.5 kmh 30.04 in1017.3 mb 0.00 in0.0 mm 0.00 in0.0 mm 0.02 in0.5 mm
12:06 AM 66.8°F19.3°C 63.4°F17.4°C 89% 4.4 mph SSW7.1 kmh SSW 14.0 mph22.5 kmh 30.04 in1017.3 mb 0.00 in0.0 mm 0.00 in0.0 mm 0.02 in0.5 mm
12:11 AM 66.8°F19.3°C 63.8°F17.7°C 90% 5.0 mph SSW8.0 kmh SSW 14.0 mph22.5 kmh 30.05 in1017.6 mb 0.00 in0.0 mm 0.00 in0.0 mm 0.02 in0.5 mm
12:16 AM 66.8°F19.3°C 63.8°F17.7°C 90% 5.8 mph SW9.3 kmh SW 14.0 mph22.5 kmh 30.05 in1017.6 mb 0.00 in0.0 mm 0.00 in0.0 mm 0.02 in0.5 mm
12:21 AM 66.8°F19.3°C 63.8°F17.7°C 90% 4.0 mph SSW6.4 kmh SSW 12.0 mph19.3 kmh 30.05 in1017.6 mb 0.00 in0.0 mm 0.00 in0.0 mm 0.02 in0.5 mm
12:26 AM 66.8°F19.3°C 63.8°F17.7°C 90% 3.3 mph SW5.3 kmh SW 12.0 mph19.3 kmh 30.05 in1017.6 mb 0.00 in0.0 mm 0.00 in0.0 mm 0.02 in0.5 mm
12:31 AM 66.8°F19.3°C 63.8°F17.7°C 90% 3.2 mph SW5.1 kmh SW 11.0 mph17.7 kmh 30.05 in1017.6 mb 0.00 in0.0 mm 0.00 in0.0 mm 0.02 in0.5 mm
12:36 AM 66.7°F19.3°C 63.7°F17.6°C 90% 4.8 mph S7.7 kmh S 11.0 mph17.7 kmh 30.05 in1017.6 mb 0.00 in0.0 mm 0.00 in0.0 mm 0.02 in0.5 mm
12:41 AM 66.7°F19.3°C 63.7°F17.6°C 90% 4.4 mph SW7.1 kmh SW 10.0 mph16.1 kmh 30.05 in1017.6 mb 0.00 in0.0 mm 0.00 in0.0 mm 0.02 in0.5 mm
12:46 AM 66.7°F19.3°C 64.0°F17.8°C 91% 4.7 mph SW7.6 kmh SW 9.0 mph14.5 kmh 30.05 in1017.6 mb 0.00 in0.0 mm 0.00 in0.0 mm 0.02 in0.5 mm
12:51 AM 66.6°F19.2°C 63.9°F17.7°C 91% 5.2 mph SW8.4 kmh SW 13.0 mph20.9 kmh 30.05 in1017.6 mb 0.00 in0.0 mm 0.00 in0.0 mm 0.02 in0.5 mm
12:56 AM 66.5°F19.2°C 63.8°F17.7°C 91% 5.1 mph SW8.2 kmh SW 13.0 mph20.9 kmh 30.05 in1017.6 mb 0.00 in0.0 mm 0.00 in0.0 mm 0.02 in0.5 mm
01:01 AM 66.2°F19.0°C 63.8°F17.7°C 92% 2.9 mph SW4.7 kmh SW 13.0 mph20.9 kmh 30.06 in1017.9 mb 0.00 in0.0 mm 0.00 in0.0 mm 0.02 in0.5 mm
01:06 AM 65.9°F18.8°C 63.8°F17.7°C 93% 3.6 mph SSW5.8 kmh SSW 13.0 mph20.9 kmh 30.05 in1017.6 mb 0.00 in0.0 mm 0.00 in0.0 mm 0.00 in0.0 mm
01:11 AM 65.7°F18.7°C 63.9°F17.7°C 94% 2.2 mph SW3.5 kmh SW 9.0 mph14.5 kmh 30.05 in1017.6 mb 0.00 in0.0 mm 0.00 in0.0 mm 0.00 in0.0 mm
01:16 AM 65.5°F18.6°C 64.0°F17.8°C 95% 2.1 mph SW3.4 kmh SW 8.0 mph12.9 kmh 30.05 in1017.6 mb 0.00 in0.0 mm 0.00 in0.0 mm 0.00 in0.0 mm
01:21 AM 65.4°F18.6°C 63.9°F17.7°C 95% 1.6 mph SW2.6 kmh SW 8.0 mph12.9 kmh 30.05 in1017.6 mb 0.00 in0.0 mm 0.00 in0.0 mm 0.00 in0.0 mm
01:26 AM 65.2°F18.4°C 63.7°F17.6°C 95% 2.7 mph SSW4.3 kmh SSW 6.0 mph9.7 kmh 30.05 in1017.6 mb 0.00 in0.0 mm 0.00 in0.0 mm 0.00 in0.0 mm
01:31 AM 65.2°F18.4°C 64.0°F17.8°C 96% 1.8 mph SW2.9 kmh SW 6.0 mph9.7 kmh 30.05 in1017.6 mb 0.01 in0.3 mm 0.12 in3.0 mm 0.01 in0.3 mm
01:36 AM 65.2°F18.4°C 64.0°F17.8°C 96% 2.7 mph S4.3 kmh S 7.0 mph11.3 kmh 30.05 in1017.6 mb 0.01 in0.3 mm 0.00 in0.0 mm 0.01 in0.3 mm
01:41 AM 65.1°F18.4°C 63.9°F17.7°C 96% 2.2 mph SSW3.5 kmh SSW 8.0 mph12.9 kmh 30.05 in1017.6 mb 0.01 in0.3 mm 0.00 in0.0 mm 0.01 in0.3 mm
01:46 AM 65.1°F18.4°C 63.9°F17.7°C 96% 2.4 mph SW3.9 kmh SW 8.0 mph12.9 kmh 30.05 in1017.6 mb 0.01 in0.3 mm 0.00 in0.0 mm 0.01 in0.3 mm
01:51 AM 65.1°F18.4°C 63.9°F17.7°C 96% 1.6 mph SSW2.6 kmh SSW 8.0 mph12.9 kmh 30.05 in1017.6 mb 0.01 in0.3 mm 0.00 in0.0 mm 0.01 in0.3 mm
01:56 AM 65.1°F18.4°C 64.2°F17.9°C 97% 4.2 mph SSW6.8 kmh SSW 9.0 mph14.5 kmh 30.04 in1017.3 mb 0.01 in0.3 mm 0.00 in0.0 mm 0.01 in0.3 mm
02:01 AM 65.1°F18.4°C 64.2°F17.9°C 97% 2.1 mph SSW3.4 kmh SSW 9.0 mph14.5 kmh 30.04 in1017.3 mb 0.01 in0.3 mm 0.00 in0.0 mm 0.01 in0.3 mm
02:06 AM 65.1°F18.4°C 64.2°F17.9°C 97% 2.8 mph SSW4.5 kmh SSW 9.0 mph14.5 kmh 30.04 in1017.3 mb 0.01 in0.3 mm 0.00 in0.0 mm 0.01 in0.3 mm
02:11 AM 65.2°F18.4°C 64.3°F17.9°C 97% 3.0 mph SW4.8 kmh SW 9.0 mph14.5 kmh 30.04 in1017.3 mb 0.01 in0.3 mm 0.00 in0.0 mm 0.01 in0.3 mm
02:16 AM 65.2°F18.4°C 64.3°F17.9°C 97% 3.1 mph SW5.0 kmh SW 9.0 mph14.5 kmh 30.04 in1017.3 mb 0.01 in0.3 mm 0.00 in0.0 mm 0.01 in0.3 mm
02:21 AM 65.2°F18.4°C 64.3°F17.9°C 97% 4.5 mph SSW7.2 kmh SSW 9.0 mph14.5 kmh 30.05 in1017.6 mb 0.01 in0.3 mm 0.00 in0.0 mm 0.01 in0.3 mm
02:26 AM 65.3°F18.5°C 64.4°F18.0°C 97% 4.4 mph SW7.1 kmh SW 13.0 mph20.9 kmh 30.04 in1017.3 mb 0.01 in0.3 mm 0.00 in0.0 mm 0.01 in0.3 mm
02:31 AM 65.3°F18.5°C 64.4°F18.0°C 97% 4.5 mph SW7.2 kmh SW 13.0 mph20.9 kmh 30.04 in1017.3 mb 0.00 in0.0 mm 0.00 in0.0 mm 0.01 in0.3 mm
02:36 AM 65.4°F18.6°C 64.5°F18.1°C 97% 3.4 mph SW5.5 kmh SW 13.0 mph20.9 kmh 30.04 in1017.3 mb 0.00 in0.0 mm 0.00 in0.0 mm 0.01 in0.3 mm
02:41 AM 65.4°F18.6°C 64.5°F18.1°C 97% 3.1 mph SW5.0 kmh SW 13.0 mph20.9 kmh 30.05 in1017.6 mb 0.00 in0.0 mm 0.00 in0.0 mm 0.01 in0.3 mm
02:46 AM 65.4°F18.6°C 64.5°F18.1°C 97% 2.9 mph SW4.7 kmh SW 12.0 mph19.3 kmh 30.05 in1017.6 mb 0.00 in0.0 mm 0.00 in0.0 mm 0.01 in0.3 mm
02:50 AM 65.5°F18.6°C 64.6°F18.1°C 97% 2.7 mph SW4.3 kmh SW 11.0 mph17.7 kmh 30.05 in1017.6 mb 0.00 in0.0 mm 0.00 in0.0 mm 0.01 in0.3 mm
02:55 AM 65.5°F18.6°C 64.6°F18.1°C 97% 3.8 mph SW6.1 kmh SW 11.0 mph17.7 kmh 30.05 in1017.6 mb 0.00 in0.0 mm 0.00 in0.0 mm 0.01 in0.3 mm
03:00 AM 65.5°F18.6°C 64.6°F18.1°C 97% 3.2 mph SW5.1 kmh SW 11.0 mph17.7 kmh 30.05 in1017.6 mb 0.00 in0.0 mm 0.00 in0.0 mm 0.01 in0.3 mm
03:05 AM 65.5°F18.6°C 64.6°F18.1°C 97% 5.4 mph SW8.7 kmh SW 11.0 mph17.7 kmh 30.04 in1017.3 mb 0.00 in0.0 mm 0.00 in0.0 mm 0.01 in0.3 mm
03:10 AM 65.5°F18.6°C 64.6°F18.1°C 97% 2.7 mph SW4.3 kmh SW 11.0 mph17.7 kmh 30.04 in1017.3 mb 0.00 in0.0 mm 0.00 in0.0 mm 0.01 in0.3 mm
03:15 AM 65.5°F18.6°C 64.6°F18.1°C 97% 4.7 mph SW7.6 kmh SW 11.0 mph17.7 kmh 30.04 in1017.3 mb 0.00 in0.0 mm 0.00 in0.0 mm 0.01 in0.3 mm
03:20 AM 65.5°F18.6°C 64.6°F18.1°C 97% 2.4 mph SSW3.9 kmh SSW 11.0 mph17.7 kmh 30.04 in1017.3 mb 0.00 in0.0 mm 0.00 in0.0 mm 0.01 in0.3 mm
03:25 AM 65.5°F18.6°C 64.6°F18.1°C 97% 2.6 mph SW4.2 kmh SW 10.0 mph16.1 kmh 30.04 in1017.3 mb 0.00 in0.0 mm 0.00 in0.0 mm 0.01 in0.3 mm
03:30 AM 65.5°F18.6°C 64.6°F18.1°C 97% 4.4 mph SW7.1 kmh SW 10.0 mph16.1 kmh 30.04 in1017.3 mb 0.00 in0.0 mm 0.00 in0.0 mm 0.01 in0.3 mm
03:35 AM 65.5°F18.6°C 64.9°F18.3°C 98% 3.1 mph SW5.0 kmh SW 10.0 mph16.1 kmh 30.04 in1017.3 mb 0.00 in0.0 mm 0.00 in0.0 mm 0.01 in0.3 mm
03:40 AM 65.6°F18.7°C 65.0°F18.3°C 98% 2.9 mph SW4.7 kmh SW 14.0 mph22.5 kmh 30.04 in1017.3 mb 0.00 in0.0 mm 0.00 in0.0 mm 0.01 in0.3 mm
03:45 AM 65.6°F18.7°C 65.0°F18.3°C 98% 2.3 mph SW3.7 kmh SW 14.0 mph22.5 kmh 30.04 in1017.3 mb 0.00 in0.0 mm 0.00 in0.0 mm 0.01 in0.3 mm
03:50 AM 65.6°F18.7°C 65.0°F18.3°C 98% 5.2 mph SW8.4 kmh SW 14.0 mph22.5 kmh 30.04 in1017.3 mb 0.00 in0.0 mm 0.00 in0.0 mm 0.01 in0.3 mm
03:55 AM 65.6°F18.7°C 65.0°F18.3°C 98% 2.5 mph SW4.0 kmh SW 14.0 mph22.5 kmh 30.04 in1017.3 mb 0.00 in0.0 mm 0.00 in0.0 mm 0.01 in0.3 mm
04:00 AM 65.6°F18.7°C 65.0°F18.3°C 98% 3.1 mph SW5.0 kmh SW 12.0 mph19.3 kmh 30.04 in1017.3 mb 0.01 in0.3 mm 0.01 in0.3 mm 0.02 in0.5 mm
04:05 AM 65.6°F18.7°C 65.0°F18.3°C 98% 4.1 mph SW6.6 kmh SW 10.0 mph16.1 kmh 30.04 in1017.3 mb 0.01 in0.3 mm 0.00 in0.0 mm 0.02 in0.5 mm
04:10 AM 65.7°F18.7°C 65.1°F18.4°C 98% 3.8 mph SW6.1 kmh SW 9.0 mph14.5 kmh 30.04 in1017.3 mb 0.01 in0.3 mm 0.00 in0.0 mm 0.02 in0.5 mm
04:15 AM 65.7°F18.7°C 65.1°F18.4°C 98% 2.0 mph SW3.2 kmh SW 9.0 mph14.5 kmh 30.04 in1017.3 mb 0.01 in0.3 mm 0.00 in0.0 mm 0.02 in0.5 mm
04:20 AM 65.7°F18.7°C 65.1°F18.4°C 98% 3.4 mph SW5.5 kmh SW 9.0 mph14.5 kmh 30.04 in1017.3 mb 0.01 in0.3 mm 0.00 in0.0 mm 0.02 in0.5 mm
04:25 AM 65.8°F18.8°C 65.2°F18.4°C 98% 3.4 mph SW5.5 kmh SW 9.0 mph14.5 kmh 30.04 in1017.3 mb 0.01 in0.3 mm 0.00 in0.0 mm 0.02 in0.5 mm
04:30 AM 65.8°F18.8°C 65.2°F18.4°C 98% 3.9 mph SW6.3 kmh SW 9.0 mph14.5 kmh 30.04 in1017.3 mb 0.01 in0.3 mm 0.00 in0.0 mm 0.02 in0.5 mm
04:35 AM 65.8°F18.8°C 65.2°F18.4°C 98% 2.9 mph SSW4.7 kmh SSW 12.0 mph19.3 kmh 30.04 in1017.3 mb 0.01 in0.3 mm 0.00 in0.0 mm 0.02 in0.5 mm
04:40 AM 65.8°F18.8°C 65.2°F18.4°C 98% 3.7 mph SW6.0 kmh SW 12.0 mph19.3 kmh 30.04 in1017.3 mb 0.01 in0.3 mm 0.00 in0.0 mm 0.02 in0.5 mm
04:45 AM 65.9°F18.8°C 65.3°F18.5°C 98% 2.1 mph SW3.4 kmh SW 12.0 mph19.3 kmh 30.04 in1017.3 mb 0.01 in0.3 mm 0.00 in0.0 mm 0.02 in0.5 mm
04:50 AM 65.9°F18.8°C 65.3°F18.5°C 98% 2.9 mph SW4.7 kmh SW 9.0 mph14.5 kmh 30.04 in1017.3 mb 0.01 in0.3 mm 0.00 in0.0 mm 0.02 in0.5 mm
04:55 AM 65.9°F18.8°C 65.3°F18.5°C 98% 3.3 mph SW5.3 kmh SW 9.0 mph14.5 kmh 30.04 in1017.3 mb 0.01 in0.3 mm 0.00 in0.0 mm 0.02 in0.5 mm
05:00 AM 66.0°F18.9°C 65.4°F18.6°C 98% 3.8 mph SW6.1 kmh SW 10.0 mph16.1 kmh 30.03 in1016.9 mb 0.00 in0.0 mm 0.00 in0.0 mm 0.02 in0.5 mm
05:05 AM 66.0°F18.9°C 65.4°F18.6°C 98% 2.2 mph SSW3.5 kmh SSW 11.0 mph17.7 kmh 30.03 in1016.9 mb 0.00 in0.0 mm 0.00 in0.0 mm 0.02 in0.5 mm
05:10 AM 66.0°F18.9°C 65.4°F18.6°C 98% 4.9 mph SW7.9 kmh SW 11.0 mph17.7 kmh 30.03 in1016.9 mb 0.00 in0.0 mm 0.00 in0.0 mm 0.02 in0.5 mm
05:15 AM 66.1°F18.9°C 65.5°F18.6°C 98% 3.6 mph SW5.8 kmh SW 11.0 mph17.7 kmh 30.03 in1016.9 mb 0.00 in0.0 mm 0.00 in0.0 mm 0.02 in0.5 mm
05:20 AM 66.1°F18.9°C 65.5°F18.6°C 98% 2.0 mph SW3.2 kmh SW 11.0 mph17.7 kmh 30.03 in1016.9 mb 0.00 in0.0 mm 0.00 in0.0 mm 0.02 in0.5 mm
05:25 AM 66.2°F19.0°C 65.6°F18.7°C 98% 2.9 mph SW4.7 kmh SW 11.0 mph17.7 kmh 30.04 in1017.3 mb 0.00 in0.0 mm 0.00 in0.0 mm 0.02 in0.5 mm
05:30 AM 66.3°F19.1°C 65.7°F18.7°C 98% 1.7 mph SSW2.7 kmh SSW 9.0 mph14.5 kmh 30.03 in1016.9 mb 0.00 in0.0 mm 0.00 in0.0 mm 0.02 in0.5 mm
05:35 AM 66.3°F19.1°C 65.7°F18.7°C 98% 3.2 mph SW5.1 kmh SW 7.0 mph11.3 kmh 30.03 in1016.9 mb 0.00 in0.0 mm 0.00 in0.0 mm 0.02 in0.5 mm
05:40 AM 66.3°F19.1°C 65.7°F18.7°C 98% 3.4 mph SW5.5 kmh SW 10.0 mph16.1 kmh 30.03 in1016.9 mb 0.00 in0.0 mm 0.00 in0.0 mm 0.02 in0.5 mm
05:45 AM 66.3°F19.1°C 65.7°F18.7°C 98% 2.4 mph SSW3.9 kmh SSW 10.0 mph16.1 kmh 30.03 in1016.9 mb 0.00 in0.0 mm 0.00 in0.0 mm 0.02 in0.5 mm
05:50 AM 66.3°F19.1°C 65.7°F18.7°C 98% 2.5 mph SW4.0 kmh SW 10.0 mph16.1 kmh 30.03 in1016.9 mb 0.00 in0.0 mm 0.00 in0.0 mm 0.02 in0.5 mm
05:55 AM 66.4°F19.1°C 65.8°F18.8°C 98% 3.8 mph SW6.1 kmh SW 10.0 mph16.1 kmh 30.04 in1017.3 mb 0.00 in0.0 mm 0.00 in0.0 mm 0.02 in0.5 mm
06:00 AM 66.4°F19.1°C 65.8°F18.8°C 98% 1.7 mph SW2.7 kmh SW 8.0 mph12.9 kmh 30.03 in1016.9 mb 0.00 in0.0 mm 0.00 in0.0 mm 0.02 in0.5 mm
06:05 AM 66.3°F19.1°C 65.7°F18.7°C 98% 2.5 mph SW4.0 kmh SW 8.0 mph12.9 kmh 30.04 in1017.3 mb 0.00 in0.0 mm 0.00 in0.0 mm 0.02 in0.5 mm
06:10 AM 66.3°F19.1°C 65.7°F18.7°C 98% 3.1 mph SSW5.0 kmh SSW 9.0 mph14.5 kmh 30.04 in1017.3 mb 0.00 in0.0 mm 0.00 in0.0 mm 0.02 in0.5 mm
06:15 AM 66.4°F19.1°C 65.8°F18.8°C 98% 3.0 mph SW4.8 kmh SW 9.0 mph14.5 kmh 30.04 in1017.3 mb 0.00 in0.0 mm 0.00 in0.0 mm 0.02 in0.5 mm
06:20 AM 66.3°F19.1°C 65.7°F18.7°C 98% 1.5 mph SSW2.4 kmh SSW 9.0 mph14.5 kmh 30.04 in1017.3 mb 0.00 in0.0 mm 0.00 in0.0 mm 0.02 in0.5 mm
06:25 AM 66.3°F19.1°C 65.7°F18.7°C 98% 1.8 mph SW2.9 kmh SW 9.0 mph14.5 kmh 30.04 in1017.3 mb 0.00 in0.0 mm 0.00 in0.0 mm 0.02 in0.5 mm
06:30 AM 66.3°F19.1°C 65.7°F18.7°C 98% 2.2 mph SW3.5 kmh SW 7.0 mph11.3 kmh 30.04 in1017.3 mb 0.00 in0.0 mm 0.00 in0.0 mm 0.02 in0.5 mm
06:35 AM 66.3°F19.1°C 65.7°F18.7°C 98% 1.6 mph SW2.6 kmh SW 7.0 mph11.3 kmh 30.04 in1017.3 mb 0.00 in0.0 mm 0.00 in0.0 mm 0.02 in0.5 mm
06:40 AM 66.3°F19.1°C 65.7°F18.7°C 98% 2.1 mph SW3.4 kmh SW 7.0 mph11.3 kmh 30.04 in1017.3 mb 0.00 in0.0 mm 0.00 in0.0 mm 0.02 in0.5 mm
06:45 AM 66.3°F19.1°C 65.7°F18.7°C 98% 2.1 mph SW3.4 kmh SW 7.0 mph11.3 kmh 30.04 in1017.3 mb 0.00 in0.0 mm 0.00 in0.0 mm 0.02 in0.5 mm
06:50 AM 66.4°F19.1°C 65.8°F18.8°C 98% 3.8 mph SW6.1 kmh SW 8.0 mph12.9 kmh 30.04 in1017.3 mb 0.00 in0.0 mm 0.00 in0.0 mm 0.02 in0.5 mm
06:55 AM 66.5°F19.2°C 65.9°F18.8°C 98% 2.3 mph SW3.7 kmh SW 8.0 mph12.9 kmh 30.05 in1017.6 mb 0.00 in0.0 mm 0.00 in0.0 mm 0.02 in0.5 mm
07:01 AM 66.5°F19.2°C 65.9°F18.8°C 98% 3.2 mph SW5.1 kmh SW 8.0 mph12.9 kmh 30.04 in1017.3 mb 0.00 in0.0 mm 0.00 in0.0 mm 0.02 in0.5 mm
07:05 AM 66.5°F19.2°C 65.9°F18.8°C 98% 2.6 mph SW4.2 kmh SW 8.0 mph12.9 kmh 30.05 in1017.6 mb 0.00 in0.0 mm 0.00 in0.0 mm 0.02 in0.5 mm
07:10 AM 66.5°F19.2°C 65.9°F18.8°C 98% 2.2 mph SW3.5 kmh SW 8.0 mph12.9 kmh 30.05 in1017.6 mb 0.00 in0.0 mm 0.00 in0.0 mm 0.02 in0.5 mm
07:15 AM 66.5°F19.2°C 65.9°F18.8°C 98% 2.5 mph SW4.0 kmh SW 8.0 mph12.9 kmh 30.05 in1017.6 mb 0.00 in0.0 mm 0.00 in0.0 mm 0.02 in0.5 mm
07:21 AM 66.5°F19.2°C 65.9°F18.8°C 98% 1.4 mph SW2.3 kmh SW 8.0 mph12.9 kmh 30.06 in1017.9 mb 0.00 in0.0 mm 0.00 in0.0 mm 0.02 in0.5 mm
07:25 AM 66.6°F19.2°C 66.0°F18.9°C 98% 2.6 mph SW4.2 kmh SW 8.0 mph12.9 kmh 30.06 in1017.9 mb 0.00 in0.0 mm 0.00 in0.0 mm 0.02 in0.5 mm
07:31 AM 66.6°F19.2°C 66.0°F18.9°C 98% 1.0 mph SW1.6 kmh SW 8.0 mph12.9 kmh 30.06 in1017.9 mb 0.00 in0.0 mm 0.00 in0.0 mm 0.02 in0.5 mm
07:36 AM 66.6°F19.2°C 66.0°F18.9°C 98% 2.1 mph SW3.4 kmh SW 8.0 mph12.9 kmh 30.06 in1017.9 mb 0.00 in0.0 mm 0.00 in0.0 mm 0.02 in0.5 mm
07:40 AM 66.7°F19.3°C 66.1°F18.9°C 98% 1.5 mph WSW2.4 kmh WSW 8.0 mph12.9 kmh 30.07 in1018.3 mb 0.00 in0.0 mm 0.00 in0.0 mm 0.02 in0.5 mm
07:46 AM 66.7°F19.3°C 66.1°F18.9°C 98% 2.4 mph SW3.9 kmh SW 6.0 mph9.7 kmh 30.07 in1018.3 mb 0.00 in0.0 mm 0.00 in0.0 mm 0.02 in0.5 mm
07:50 AM 66.7°F19.3°C 66.1°F18.9°C 98% 1.9 mph SW3.1 kmh SW 6.0 mph9.7 kmh 30.06 in1017.9 mb 0.00 in0.0 mm 0.00 in0.0 mm 0.02 in0.5 mm
07:55 AM 66.7°F19.3°C 66.1°F18.9°C 98% 1.2 mph SW1.9 kmh SW 6.0 mph9.7 kmh 30.07 in1018.3 mb 0.00 in0.0 mm 0.00 in0.0 mm 0.02 in0.5 mm
08:00 AM 66.7°F19.3°C 66.1°F18.9°C 98% 2.1 mph SW3.4 kmh SW 6.0 mph9.7 kmh 30.07 in1018.3 mb 0.00 in0.0 mm 0.00 in0.0 mm 0.02 in0.5 mm
08:05 AM 66.8°F19.3°C 66.2°F19.0°C 98% 1.9 mph SW3.1 kmh SW 6.0 mph9.7 kmh 30.07 in1018.3 mb 0.00 in0.0 mm 0.00 in0.0 mm 0.02 in0.5 mm
08:10 AM 66.8°F19.3°C 66.2°F19.0°C 98% 1.4 mph SW2.3 kmh SW 6.0 mph9.7 kmh 30.07 in1018.3 mb 0.00 in0.0 mm 0.00 in0.0 mm 0.02 in0.5 mm
08:15 AM 66.7°F19.3°C 66.1°F18.9°C 98% 1.6 mph SW2.6 kmh SW 6.0 mph9.7 kmh 30.07 in1018.3 mb 0.00 in0.0 mm 0.00 in0.0 mm 0.02 in0.5 mm
08:20 AM 66.7°F19.3°C 66.1°F18.9°C 98% 1.0 mph SW1.6 kmh SW 6.0 mph9.7 kmh 30.07 in1018.3 mb 0.00 in0.0 mm 0.00 in0.0 mm 0.02 in0.5 mm
08:25 AM 66.7°F19.3°C 66.1°F18.9°C 98% Calm Calm 3.0 mph4.8 kmh 30.08 in1018.6 mb 0.00 in0.0 mm 0.00 in0.0 mm 0.02 in0.5 mm
08:30 AM 66.7°F19.3°C 66.1°F18.9°C 98% 1.0 mph SW1.6 kmh SW 3.0 mph4.8 kmh 30.08 in1018.6 mb 0.00 in0.0 mm 0.00 in0.0 mm 0.02 in0.5 mm
08:35 AM 66.7°F19.3°C 66.1°F18.9°C 98% 1.3 mph SW2.1 kmh SW 2.0 mph3.2 kmh 30.08 in1018.6 mb 0.00 in0.0 mm 0.00 in0.0 mm 0.02 in0.5 mm
08:40 AM 66.7°F19.3°C 66.1°F18.9°C 98% 1.0 mph SW1.6 kmh SW 3.0 mph4.8 kmh 30.08 in1018.6 mb 0.00 in0.0 mm 0.00 in0.0 mm 0.02 in0.5 mm
08:45 AM 66.7°F19.3°C 66.1°F18.9°C 98% 1.0 mph SW1.6 kmh SW 3.0 mph4.8 kmh 30.08 in1018.6 mb 0.00 in0.0 mm 0.00 in0.0 mm 0.02 in0.5 mm
08:50 AM 66.7°F19.3°C 66.1°F18.9°C 98% Calm Calm 3.0 mph4.8 kmh 30.08 in1018.6 mb 0.00 in0.0 mm 0.00 in0.0 mm 0.02 in0.5 mm
08:55 AM 66.7°F19.3°C 66.1°F18.9°C 98% Calm Calm 3.0 mph4.8 kmh 30.08 in1018.6 mb 0.00 in0.0 mm 0.00 in0.0 mm 0.02 in0.5 mm
09:00 AM 66.8°F19.3°C 66.2°F19.0°C 98% 1.0 mph SW1.6 kmh SW 1.0 mph1.6 kmh 30.09 in1019.0 mb 0.00 in0.0 mm 0.00 in0.0 mm 0.02 in0.5 mm
09:05 AM 66.8°F19.3°C 66.2°F19.0°C 98% 1.2 mph WSW1.9 kmh WSW 2.0 mph3.2 kmh 30.09 in1019.0 mb 0.00 in0.0 mm 0.00 in0.0 mm 0.02 in0.5 mm
09:10 AM 66.8°F19.3°C 66.2°F19.0°C 98% 1.0 mph WSW1.6 kmh WSW 2.0 mph3.2 kmh 30.09 in1019.0 mb 0.00 in0.0 mm 0.00 in0.0 mm 0.02 in0.5 mm
09:15 AM 66.8°F19.3°C 66.2°F19.0°C 98% 1.4 mph WSW2.3 kmh WSW 2.0 mph3.2 kmh 30.10 in1019.3 mb 0.00 in0.0 mm 0.00 in0.0 mm 0.02 in0.5 mm
09:20 AM 66.8°F19.3°C 66.2°F19.0°C 98% Calm Calm 2.0 mph3.2 kmh 30.10 in1019.3 mb 0.00 in0.0 mm 0.00 in0.0 mm 0.02 in0.5 mm
09:25 AM 66.9°F19.4°C 66.3°F19.1°C 98% 1.2 mph WSW1.9 kmh WSW 2.0 mph3.2 kmh 30.10 in1019.3 mb 0.00 in0.0 mm 0.00 in0.0 mm 0.02 in0.5 mm
09:30 AM 66.9°F19.4°C 66.3°F19.1°C 98% 1.0 mph WSW1.6 kmh WSW 2.0 mph3.2 kmh 30.10 in1019.3 mb 0.00 in0.0 mm 0.00 in0.0 mm 0.02 in0.5 mm
09:35 AM 66.9°F19.4°C 66.3°F19.1°C 98% 1.4 mph SW2.3 kmh SW 3.0 mph4.8 kmh 30.10 in1019.3 mb 0.00 in0.0 mm 0.00 in0.0 mm 0.02 in0.5 mm
09:40 AM 66.9°F19.4°C 66.3°F19.1°C 98% 2.3 mph SW3.7 kmh SW 6.0 mph9.7 kmh 30.11 in1019.6 mb 0.00 in0.0 mm 0.00 in0.0 mm 0.02 in0.5 mm
09:45 AM 67.0°F19.4°C 66.4°F19.1°C 98% 1.3 mph SW2.1 kmh SW 6.0 mph9.7 kmh 30.11 in1019.6 mb 0.00 in0.0 mm 0.00 in0.0 mm 0.02 in0.5 mm
09:50 AM 67.0°F19.4°C 66.4°F19.1°C 98% 1.6 mph W2.6 kmh W 7.0 mph11.3 kmh 30.11 in1019.6 mb 0.00 in0.0 mm 0.00 in0.0 mm 0.02 in0.5 mm
09:55 AM 67.0°F19.4°C 66.4°F19.1°C 98% 2.5 mph WSW4.0 kmh WSW 7.0 mph11.3 kmh 30.11 in1019.6 mb 0.00 in0.0 mm 0.00 in0.0 mm 0.02 in0.5 mm
10:00 AM 67.0°F19.4°C 66.4°F19.1°C 98% 2.4 mph WSW3.9 kmh WSW 7.0 mph11.3 kmh 30.11 in1019.6 mb 0.00 in0.0 mm 0.00 in0.0 mm 0.02 in0.5 mm
10:05 AM 67.0°F19.4°C 66.4°F19.1°C 98% 1.0 mph WSW1.6 kmh WSW 6.0 mph9.7 kmh 30.11 in1019.6 mb 0.00 in0.0 mm 0.00 in0.0 mm 0.02 in0.5 mm
10:10 AM 67.1°F19.5°C 66.5°F19.2°C 98% 1.0 mph SW1.6 kmh SW 6.0 mph9.7 kmh 30.11 in1019.6 mb 0.00 in0.0 mm 0.00 in0.0 mm 0.02 in0.5 mm
10:15 AM 67.2°F19.6°C 66.6°F19.2°C 98% 1.0 mph W1.6 kmh W 6.0 mph9.7 kmh 30.12 in1020.0 mb 0.00 in0.0 mm 0.00 in0.0 mm 0.02 in0.5 mm
10:20 AM 67.3°F19.6°C 66.7°F19.3°C 98% 1.0 mph SW1.6 kmh SW 3.0 mph4.8 kmh 30.12 in1020.0 mb 0.00 in0.0 mm 0.00 in0.0 mm 0.02 in0.5 mm
10:25 AM 67.4°F19.7°C 66.8°F19.3°C 98% 1.0 mph W1.6 kmh W 4.0 mph6.4 kmh 30.12 in1020.0 mb 0.00 in0.0 mm 0.00 in0.0 mm 0.02 in0.5 mm
10:30 AM 67.4°F19.7°C 66.8°F19.3°C 98% 1.8 mph WSW2.9 kmh WSW 4.0 mph6.4 kmh 30.13 in1020.3 mb 0.00 in0.0 mm 0.00 in0.0 mm 0.02 in0.5 mm
10:35 AM 67.4°F19.7°C 66.8°F19.3°C 98% 1.3 mph WSW2.1 kmh WSW 4.0 mph6.4 kmh 30.12 in1020.0 mb 0.00 in0.0 mm 0.00 in0.0 mm 0.02 in0.5 mm
10:40 AM 67.5°F19.7°C 66.9°F19.4°C 98% 1.0 mph WSW1.6 kmh WSW 4.0 mph6.4 kmh 30.13 in1020.3 mb 0.00 in0.0 mm 0.00 in0.0 mm 0.02 in0.5 mm
10:45 AM 67.6°F19.8°C 67.0°F19.4°C 98% Calm Calm 4.0 mph6.4 kmh 30.13 in1020.3 mb 0.00 in0.0 mm 0.00 in0.0 mm 0.02 in0.5 mm
10:50 AM 67.6°F19.8°C 67.0°F19.4°C 98% Calm Calm 3.0 mph4.8 kmh 30.13 in1020.3 mb 0.00 in0.0 mm 0.00 in0.0 mm 0.02 in0.5 mm
10:55 AM 67.7°F19.8°C 67.1°F19.5°C 98% Calm Calm 1.0 mph1.6 kmh 30.13 in1020.3 mb 0.00 in0.0 mm 0.00 in0.0 mm 0.02 in0.5 mm
11:00 AM 67.8°F19.9°C 67.2°F19.6°C 98% 1.0 mph W1.6 kmh W 2.0 mph3.2 kmh 30.13 in1020.3 mb 0.00 in0.0 mm 0.00 in0.0 mm 0.02 in0.5 mm
11:05 AM 67.9°F19.9°C 67.3°F19.6°C 98% 1.0 mph WSW1.6 kmh WSW 2.0 mph3.2 kmh 30.13 in1020.3 mb 0.00 in0.0 mm 0.00 in0.0 mm 0.02 in0.5 mm
11:10 AM 68.2°F20.1°C 67.6°F19.8°C 98% Calm Calm 2.0 mph3.2 kmh 30.13 in1020.3 mb 0.00 in0.0 mm 0.00 in0.0 mm 0.02 in0.5 mm
11:15 AM 68.3°F20.2°C 67.7°F19.8°C 98% 1.5 mph SSW2.4 kmh SSW 2.0 mph3.2 kmh 30.13 in1020.3 mb 0.00 in0.0 mm 0.00 in0.0 mm 0.02 in0.5 mm
11:20 AM 68.5°F20.3°C 67.9°F19.9°C 98% 1.3 mph SW2.1 kmh SW 3.0 mph4.8 kmh 30.13 in1020.3 mb 0.00 in0.0 mm 0.00 in0.0 mm 0.02 in0.5 mm
11:25 AM 69.0°F20.6°C 68.4°F20.2°C 98% 1.0 mph W1.6 kmh W 3.0 mph4.8 kmh 30.13 in1020.3 mb 0.00 in0.0 mm 0.00 in0.0 mm 0.02 in0.5 mm
11:30 AM 69.2°F20.7°C 68.6°F20.3°C 98% 1.0 mph SSW1.6 kmh SSW 3.0 mph4.8 kmh 30.13 in1020.3 mb 0.00 in0.0 mm 0.00 in0.0 mm 0.02 in0.5 mm
11:35 AM 69.2°F20.7°C 68.3°F20.2°C 97% 3.8 mph SW6.1 kmh SW 7.0 mph11.3 kmh 30.13 in1020.3 mb 0.00 in0.0 mm 0.00 in0.0 mm 0.02 in0.5 mm
11:40 AM 69.3°F20.7°C 68.1°F20.1°C 96% 3.9 mph SW6.3 kmh SW 7.0 mph11.3 kmh 30.13 in1020.3 mb 0.00 in0.0 mm 0.00 in0.0 mm 0.02 in0.5 mm
11:45 AM 69.6°F20.9°C 68.1°F20.1°C 95% 3.2 mph SW5.1 kmh SW 7.0 mph11.3 kmh 30.13 in1020.3 mb 0.00 in0.0 mm 0.00 in0.0 mm 0.02 in0.5 mm
11:50 AM 69.9°F21.1°C 68.4°F20.2°C 95% 2.2 mph S3.5 kmh S 7.0 mph11.3 kmh 30.12 in1020.0 mb 0.00 in0.0 mm 0.00 in0.0 mm 0.02 in0.5 mm
11:55 AM 70.3°F21.3°C 68.5°F20.3°C 94% 1.3 mph S2.1 kmh S 7.0 mph11.3 kmh 30.11 in1019.6 mb 0.00 in0.0 mm 0.00 in0.0 mm 0.02 in0.5 mm
12:00 PM 70.3°F21.3°C 67.8°F19.9°C 92% 3.1 mph SW5.0 kmh SW 6.0 mph9.7 kmh 30.12 in1020.0 mb 0.00 in0.0 mm 0.00 in0.0 mm 0.02 in0.5 mm
12:05 PM 70.3°F21.3°C 67.8°F19.9°C 92% 1.7 mph SW2.7 kmh SW 6.0 mph9.7 kmh 30.12 in1020.0 mb 0.00 in0.0 mm 0.00 in0.0 mm 0.02 in0.5 mm
12:10 PM 70.4°F21.3°C 67.9°F19.9°C 92% 1.5 mph SW2.4 kmh SW 6.0 mph9.7 kmh 30.12 in1020.0 mb 0.00 in0.0 mm 0.00 in0.0 mm 0.02 in0.5 mm
12:15 PM 70.5°F21.4°C 68.0°F20.0°C 92% 2.8 mph SW4.5 kmh SW 6.0 mph9.7 kmh 30.12 in1020.0 mb 0.00 in0.0 mm 0.00 in0.0 mm 0.02 in0.5 mm
12:20 PM 70.5°F21.4°C 67.7°F19.8°C 91% 3.1 mph SW5.0 kmh SW 6.0 mph9.7 kmh 30.12 in1020.0 mb 0.00 in0.0 mm 0.00 in0.0 mm 0.02 in0.5 mm
12:25 PM 70.6°F21.4°C 67.8°F19.9°C 91% 3.6 mph SW5.8 kmh SW 7.0 mph11.3 kmh 30.12 in1020.0 mb 0.00 in0.0 mm 0.00 in0.0 mm 0.02 in0.5 mm
12:30 PM 70.8°F21.6°C 68.0°F20.0°C 91% 2.6 mph SW4.2 kmh SW 7.0 mph11.3 kmh 30.11 in1019.6 mb 0.00 in0.0 mm 0.00 in0.0 mm 0.02 in0.5 mm
12:35 PM 70.9°F21.6°C 68.1°F20.1°C 91% 2.6 mph WSW4.2 kmh WSW 7.0 mph11.3 kmh 30.11 in1019.6 mb 0.00 in0.0 mm 0.00 in0.0 mm 0.02 in0.5 mm
12:40 PM 70.9°F21.6°C 67.8°F19.9°C 90% 3.5 mph SW5.6 kmh SW 7.0 mph11.3 kmh 30.11 in1019.6 mb 0.00 in0.0 mm 0.00 in0.0 mm 0.02 in0.5 mm
12:45 PM 70.8°F21.6°C 67.7°F19.8°C 90% 2.3 mph SW3.7 kmh SW 7.0 mph11.3 kmh 30.11 in1019.6 mb 0.00 in0.0 mm 0.00 in0.0 mm 0.02 in0.5 mm
12:49 PM 70.8°F21.6°C 67.4°F19.7°C 89% 3.0 mph SW4.8 kmh SW 7.0 mph11.3 kmh 30.11 in1019.6 mb 0.00 in0.0 mm 0.00 in0.0 mm 0.02 in0.5 mm
12:54 PM 70.8°F21.6°C 67.7°F19.8°C 90% 1.2 mph SW1.9 kmh SW 7.0 mph11.3 kmh 30.11 in1019.6 mb 0.00 in0.0 mm 0.00 in0.0 mm 0.02 in0.5 mm
12:59 PM 70.7°F21.5°C 67.6°F19.8°C 90% 1.8 mph WSW2.9 kmh WSW 6.0 mph9.7 kmh 30.11 in1019.6 mb 0.00 in0.0 mm 0.00 in0.0 mm 0.02 in0.5 mm
01:04 PM 70.4°F21.3°C 67.6°F19.8°C 91% 1.0 mph WSW1.6 kmh WSW 6.0 mph9.7 kmh 30.11 in1019.6 mb 0.01 in0.3 mm 0.01 in0.3 mm 0.03 in0.8 mm
01:09 PM 70.1°F21.2°C 67.6°F19.8°C 92% 1.4 mph WSW2.3 kmh WSW 6.0 mph9.7 kmh 30.10 in1019.3 mb 0.01 in0.3 mm 0.00 in0.0 mm 0.03 in0.8 mm
01:14 PM 69.8°F21.0°C 67.7°F19.8°C 93% 1.0 mph W1.6 kmh W 6.0 mph9.7 kmh 30.10 in1019.3 mb 0.03 in0.8 mm 0.24 in6.1 mm 0.05 in1.3 mm
01:19 PM 69.6°F20.9°C 67.8°F19.9°C 94% 1.5 mph WSW2.4 kmh WSW 5.0 mph8.0 kmh 30.10 in1019.3 mb 0.04 in1.0 mm 0.12 in3.0 mm 0.06 in1.5 mm
01:24 PM 69.4°F20.8°C 67.9°F19.9°C 95% 1.0 mph W1.6 kmh W 2.0 mph3.2 kmh 30.10 in1019.3 mb 0.04 in1.0 mm 0.00 in0.0 mm 0.06 in1.5 mm
01:29 PM 69.2°F20.7°C 67.7°F19.8°C 95% 1.0 mph WNW1.6 kmh WNW 4.0 mph6.4 kmh 30.10 in1019.3 mb 0.04 in1.0 mm 0.00 in0.0 mm 0.06 in1.5 mm
01:34 PM 68.5°F20.3°C 66.7°F19.3°C 94% 1.8 mph NW2.9 kmh NW 4.0 mph6.4 kmh 30.10 in1019.3 mb 0.04 in1.0 mm 0.00 in0.0 mm 0.06 in1.5 mm
01:39 PM 68.0°F20.0°C 66.5°F19.2°C 95% 1.6 mph NW2.6 kmh NW 4.0 mph6.4 kmh 30.10 in1019.3 mb 0.04 in1.0 mm 0.00 in0.0 mm 0.06 in1.5 mm
01:44 PM 67.8°F19.9°C 66.6°F19.2°C 96% 1.9 mph NW3.1 kmh NW 4.0 mph6.4 kmh 30.10 in1019.3 mb 0.04 in1.0 mm 0.00 in0.0 mm 0.06 in1.5 mm
01:49 PM 67.5°F19.7°C 66.3°F19.1°C 96% 3.0 mph NW4.8 kmh NW 6.0 mph9.7 kmh 30.10 in1019.3 mb 0.04 in1.0 mm 0.00 in0.0 mm 0.06 in1.5 mm
01:54 PM 67.2°F19.6°C 66.0°F18.9°C 96% 1.2 mph NW1.9 kmh NW 6.0 mph9.7 kmh 30.10 in1019.3 mb 0.04 in1.0 mm 0.00 in0.0 mm 0.06 in1.5 mm
01:59 PM 67.1°F19.5°C 65.9°F18.8°C 96% 1.0 mph NW1.6 kmh NW 6.0 mph9.7 kmh 30.09 in1019.0 mb 0.05 in1.3 mm 0.12 in3.0 mm 0.07 in1.8 mm
02:04 PM 67.0°F19.4°C 65.8°F18.8°C 96% 1.0 mph 1.6 kmh 6.0 mph9.7 kmh 30.09 in1019.0 mb 0.04 in1.0 mm 0.00 in0.0 mm 0.07 in1.8 mm
02:09 PM 66.8°F19.3°C 65.9°F18.8°C 97% 1.7 mph NW2.7 kmh NW 3.0 mph4.8 kmh 30.09 in1019.0 mb 0.04 in1.0 mm 0.00 in0.0 mm 0.07 in1.8 mm
02:14 PM 66.8°F19.3°C 65.9°F18.8°C 97% 1.3 mph NNW2.1 kmh NNW 3.0 mph4.8 kmh 30.09 in1019.0 mb 0.03 in0.8 mm 0.00 in0.0 mm 0.08 in2.0 mm
02:19 PM 66.7°F19.3°C 65.8°F18.8°C 97% 1.0 mph NW1.6 kmh NW 3.0 mph4.8 kmh 30.09 in1019.0 mb 0.03 in0.8 mm 0.00 in0.0 mm 0.09 in2.3 mm
02:24 PM 66.6°F19.2°C 65.7°F18.7°C 97% 1.9 mph NW3.1 kmh NW 5.0 mph8.0 kmh 30.09 in1019.0 mb 0.03 in0.8 mm 0.00 in0.0 mm 0.09 in2.3 mm
02:29 PM 66.6°F19.2°C 65.7°F18.7°C 97% 1.5 mph NW2.4 kmh NW 5.0 mph8.0 kmh 30.09 in1019.0 mb 0.04 in1.0 mm 0.12 in3.0 mm 0.10 in2.5 mm
02:34 PM 66.6°F19.2°C 65.7°F18.7°C 97% 1.1 mph NW1.8 kmh NW 5.0 mph8.0 kmh 30.09 in1019.0 mb 0.04 in1.0 mm 0.00 in0.0 mm 0.10 in2.5 mm
02:39 PM 66.6°F19.2°C 65.7°F18.7°C 97% 1.6 mph NNW2.6 kmh NNW 5.0 mph8.0 kmh 30.09 in1019.0 mb 0.04 in1.0 mm 0.00 in0.0 mm 0.10 in2.5 mm
02:44 PM 66.7°F19.3°C 65.8°F18.8°C 97% 1.0 mph NNE1.6 kmh NNE 5.0 mph8.0 kmh 30.08 in1018.6 mb 0.04 in1.0 mm 0.00 in0.0 mm 0.10 in2.5 mm
02:49 PM 66.8°F19.3°C 65.9°F18.8°C 97% 1.0 mph NNW1.6 kmh NNW 5.0 mph8.0 kmh 30.08 in1018.6 mb 0.04 in1.0 mm 0.00 in0.0 mm 0.10 in2.5 mm
02:54 PM 66.7°F19.3°C 65.8°F18.8°C 97% Calm Calm 4.0 mph6.4 kmh 30.08 in1018.6 mb 0.03 in0.8 mm 0.00 in0.0 mm 0.10 in2.5 mm
02:59 PM 66.8°F19.3°C 65.9°F18.8°C 97% Calm Calm 3.0 mph4.8 kmh 30.08 in1018.6 mb 0.03 in0.8 mm 0.00 in0.0 mm 0.10 in2.5 mm
03:04 PM 66.9°F19.4°C 66.0°F18.9°C 97% Calm Calm 1.0 mph1.6 kmh 30.08 in1018.6 mb 0.03 in0.8 mm 0.00 in0.0 mm 0.10 in2.5 mm
03:09 PM 66.9°F19.4°C 66.0°F18.9°C 97% Calm Calm 1.0 mph1.6 kmh 30.08 in1018.6 mb 0.03 in0.8 mm 0.00 in0.0 mm 0.10 in2.5 mm
03:14 PM 66.9°F19.4°C 66.0°F18.9°C 97% 1.0 mph NW1.6 kmh NW 2.0 mph3.2 kmh 30.09 in1019.0 mb 0.02 in0.5 mm 0.00 in0.0 mm 0.10 in2.5 mm
03:19 PM 67.0°F19.4°C 66.1°F18.9°C 97% 1.0 mph WNW1.6 kmh WNW 2.0 mph3.2 kmh 30.09 in1019.0 mb 0.01 in0.3 mm 0.00 in0.0 mm 0.10 in2.5 mm
03:24 PM 67.0°F19.4°C 66.1°F18.9°C 97% 1.2 mph NW1.9 kmh NW 2.0 mph3.2 kmh 30.09 in1019.0 mb 0.01 in0.3 mm 0.00 in0.0 mm 0.10 in2.5 mm
03:29 PM 67.2°F19.6°C 66.3°F19.1°C 97% Calm Calm 2.0 mph3.2 kmh 30.09 in1019.0 mb 0.01 in0.3 mm 0.00 in0.0 mm 0.11 in2.8 mm
03:34 PM 67.1°F19.5°C 66.2°F19.0°C 97% 1.5 mph NNW2.4 kmh NNW 3.0 mph4.8 kmh 30.09 in1019.0 mb 0.01 in0.3 mm 0.00 in0.0 mm 0.11 in2.8 mm
03:39 PM 67.0°F19.4°C 66.1°F18.9°C 97% 1.6 mph NNW2.6 kmh NNW 3.0 mph4.8 kmh 30.09 in1019.0 mb 0.02 in0.5 mm 0.12 in3.0 mm 0.12 in3.0 mm
03:44 PM 66.9°F19.4°C 66.0°F18.9°C 97% 1.9 mph NW3.1 kmh NW 3.0 mph4.8 kmh 30.09 in1019.0 mb 0.03 in0.8 mm 0.12 in3.0 mm 0.13 in3.3 mm
03:49 PM 66.8°F19.3°C 65.9°F18.8°C 97% 2.3 mph NW3.7 kmh NW 5.0 mph8.0 kmh 30.09 in1019.0 mb 0.04 in1.0 mm 0.12 in3.0 mm 0.14 in3.6 mm
03:54 PM 66.7°F19.3°C 65.8°F18.8°C 97% 1.5 mph WNW2.4 kmh WNW 5.0 mph8.0 kmh 30.09 in1019.0 mb 0.04 in1.0 mm 0.00 in0.0 mm 0.14 in3.6 mm
03:59 PM 66.7°F19.3°C 65.8°F18.8°C 97% 1.8 mph NW2.9 kmh NW 5.0 mph8.0 kmh 30.09 in1019.0 mb 0.04 in1.0 mm 0.00 in0.0 mm 0.14 in3.6 mm
04:04 PM 66.6°F19.2°C 65.7°F18.7°C 97% 1.7 mph WNW2.7 kmh WNW 6.0 mph9.7 kmh 30.09 in1019.0 mb 0.04 in1.0 mm 0.00 in0.0 mm 0.14 in3.6 mm
04:09 PM 66.5°F19.2°C 65.6°F18.7°C 97% 1.4 mph WNW2.3 kmh WNW 6.0 mph9.7 kmh 30.09 in1019.0 mb 0.04 in1.0 mm 0.00 in0.0 mm 0.14 in3.6 mm
04:14 PM 66.4°F19.1°C 65.5°F18.6°C 97% 2.4 mph NW3.9 kmh NW 6.0 mph9.7 kmh 30.09 in1019.0 mb 0.04 in1.0 mm 0.00 in0.0 mm 0.14 in3.6 mm
04:19 PM 66.4°F19.1°C 65.5°F18.6°C 97% 1.7 mph NW2.7 kmh NW 6.0 mph9.7 kmh 30.09 in1019.0 mb 0.04 in1.0 mm 0.00 in0.0 mm 0.14 in3.6 mm
04:24 PM 66.5°F19.2°C 65.6°F18.7°C 97% Calm Calm 6.0 mph9.7 kmh 30.09 in1019.0 mb 0.04 in1.0 mm 0.00 in0.0 mm 0.14 in3.6 mm
04:29 PM 66.4°F19.1°C 65.5°F18.6°C 97% 1.9 mph NW3.1 kmh NW 6.0 mph9.7 kmh 30.09 in1019.0 mb 0.04 in1.0 mm 0.00 in0.0 mm 0.15 in3.8 mm
04:34 PM 66.4°F19.1°C 65.5°F18.6°C 97% 1.7 mph N2.7 kmh N 4.0 mph6.4 kmh 30.09 in1019.0 mb 0.04 in1.0 mm 0.00 in0.0 mm 0.15 in3.8 mm
04:39 PM 66.4°F19.1°C 65.5°F18.6°C 97% 1.0 mph NW1.6 kmh NW 4.0 mph6.4 kmh 30.09 in1019.0 mb 0.03 in0.8 mm 0.00 in0.0 mm 0.15 in3.8 mm
04:44 PM 66.5°F19.2°C 65.6°F18.7°C 97% Calm Calm 4.0 mph6.4 kmh 30.09 in1019.0 mb 0.02 in0.5 mm 0.00 in0.0 mm 0.15 in3.8 mm
04:49 PM 66.6°F19.2°C 65.7°F18.7°C 97% 1.0 mph N1.6 kmh N 2.0 mph3.2 kmh 30.08 in1018.6 mb 0.01 in0.3 mm 0.00 in0.0 mm 0.15 in3.8 mm
04:54 PM 66.4°F19.1°C 65.5°F18.6°C 97% 1.6 mph NW2.6 kmh NW 3.0 mph4.8 kmh 30.09 in1019.0 mb 0.01 in0.3 mm 0.00 in0.0 mm 0.15 in3.8 mm
04:59 PM 66.4°F19.1°C 65.5°F18.6°C 97% 1.4 mph NW2.3 kmh NW 3.0 mph4.8 kmh 30.08 in1018.6 mb 0.01 in0.3 mm 0.00 in0.0 mm 0.15 in3.8 mm
05:04 PM 66.5°F19.2°C 65.6°F18.7°C 97% 1.0 mph NW1.6 kmh NW 3.0 mph4.8 kmh 30.09 in1019.0 mb 0.01 in0.3 mm 0.00 in0.0 mm 0.15 in3.8 mm
05:09 PM 66.4°F19.1°C 65.2°F18.4°C 96% 1.7 mph NW2.7 kmh NW 4.0 mph6.4 kmh 30.10 in1019.3 mb 0.01 in0.3 mm 0.00 in0.0 mm 0.15 in3.8 mm
05:14 PM 66.5°F19.2°C 65.6°F18.7°C 97% 1.4 mph NW2.3 kmh NW 4.0 mph6.4 kmh 30.10 in1019.3 mb 0.01 in0.3 mm 0.00 in0.0 mm 0.15 in3.8 mm
05:19 PM 66.5°F19.2°C 65.6°F18.7°C 97% 1.3 mph NW2.1 kmh NW 4.0 mph6.4 kmh 30.10 in1019.3 mb 0.01 in0.3 mm 0.00 in0.0 mm 0.15 in3.8 mm
05:24 PM 66.4°F19.1°C 65.5°F18.6°C 97% 1.0 mph WNW1.6 kmh WNW 3.0 mph4.8 kmh 30.10 in1019.3 mb 0.01 in0.3 mm 0.00 in0.0 mm 0.15 in3.8 mm
05:29 PM 66.3°F19.1°C 65.4°F18.6°C 97% 1.4 mph NNW2.3 kmh NNW 3.0 mph4.8 kmh 30.10 in1019.3 mb 0.00 in0.0 mm 0.00 in0.0 mm 0.15 in3.8 mm
05:34 PM 66.0°F18.9°C 64.8°F18.2°C 96% 2.4 mph NW3.9 kmh NW 5.0 mph8.0 kmh 30.10 in1019.3 mb 0.00 in0.0 mm 0.00 in0.0 mm 0.15 in3.8 mm
05:39 PM 65.8°F18.8°C 64.6°F18.1°C 96% 1.2 mph NW1.9 kmh NW 5.0 mph8.0 kmh 30.11 in1019.6 mb 0.00 in0.0 mm 0.00 in0.0 mm 0.15 in3.8 mm
05:44 PM 65.6°F18.7°C 64.4°F18.0°C 96% 1.7 mph NNW2.7 kmh NNW 5.0 mph8.0 kmh 30.11 in1019.6 mb 0.00 in0.0 mm 0.00 in0.0 mm 0.15 in3.8 mm
05:48 PM 65.4°F18.6°C 64.5°F18.1°C 97% 1.6 mph NW2.6 kmh NW 5.0 mph8.0 kmh 30.11 in1019.6 mb 0.00 in0.0 mm 0.00 in0.0 mm 0.15 in3.8 mm
05:53 PM 65.3°F18.5°C 64.4°F18.0°C 97% 1.0 mph NNE1.6 kmh NNE 5.0 mph8.0 kmh 30.11 in1019.6 mb 0.00 in0.0 mm 0.00 in0.0 mm 0.15 in3.8 mm
05:58 PM 65.2°F18.4°C 64.3°F17.9°C 97% 1.2 mph NW1.9 kmh NW 5.0 mph8.0 kmh 30.12 in1020.0 mb 0.00 in0.0 mm 0.00 in0.0 mm 0.15 in3.8 mm
06:03 PM 65.2°F18.4°C 64.3°F17.9°C 97% 1.0 mph NE1.6 kmh NE 5.0 mph8.0 kmh 30.12 in1020.0 mb 0.00 in0.0 mm 0.00 in0.0 mm 0.15 in3.8 mm
06:08 PM 65.2°F18.4°C 64.3°F17.9°C 97% 1.2 mph NW1.9 kmh NW 2.0 mph3.2 kmh 30.12 in1020.0 mb 0.00 in0.0 mm 0.00 in0.0 mm 0.15 in3.8 mm
06:13 PM 65.1°F18.4°C 64.2°F17.9°C 97% 1.0 mph NW1.6 kmh NW 2.0 mph3.2 kmh 30.12 in1020.0 mb 0.00 in0.0 mm 0.00 in0.0 mm 0.15 in3.8 mm
06:18 PM 65.1°F18.4°C 64.2°F17.9°C 97% 1.2 mph NNW1.9 kmh NNW 2.0 mph3.2 kmh 30.12 in1020.0 mb 0.00 in0.0 mm 0.00 in0.0 mm 0.15 in3.8 mm
06:23 PM 65.0°F18.3°C 64.1°F17.8°C 97% 1.2 mph NW1.9 kmh NW 2.0 mph3.2 kmh 30.12 in1020.0 mb 0.00 in0.0 mm 0.00 in0.0 mm 0.15 in3.8 mm
06:28 PM 65.0°F18.3°C 64.1°F17.8°C 97% 1.0 mph W1.6 kmh W 2.0 mph3.2 kmh 30.12 in1020.0 mb 0.00 in0.0 mm 0.00 in0.0 mm 0.15 in3.8 mm
06:33 PM 64.9°F18.3°C 64.0°F17.8°C 97% 1.8 mph WNW2.9 kmh WNW 3.0 mph4.8 kmh 30.12 in1020.0 mb 0.00 in0.0 mm 0.00 in0.0 mm 0.15 in3.8 mm
06:38 PM 64.7°F18.2°C 63.8°F17.7°C 97% 1.2 mph WNW1.9 kmh WNW 4.0 mph6.4 kmh 30.12 in1020.0 mb 0.01 in0.3 mm 0.12 in3.0 mm 0.16 in4.1 mm
06:43 PM 64.7°F18.2°C 63.8°F17.7°C 97% 1.4 mph NW2.3 kmh NW 4.0 mph6.4 kmh 30.12 in1020.0 mb 0.01 in0.3 mm 0.00 in0.0 mm 0.16 in4.1 mm
06:48 PM 64.6°F18.1°C 63.7°F17.6°C 97% 1.9 mph W3.1 kmh W 4.0 mph6.4 kmh 30.13 in1020.3 mb 0.01 in0.3 mm 0.00 in0.0 mm 0.16 in4.1 mm
06:53 PM 64.5°F18.1°C 63.6°F17.6°C 97% 1.1 mph WNW1.8 kmh WNW 4.0 mph6.4 kmh 30.13 in1020.3 mb 0.01 in0.3 mm 0.00 in0.0 mm 0.16 in4.1 mm
06:58 PM 64.5°F18.1°C 63.6°F17.6°C 97% 1.0 mph W1.6 kmh W 4.0 mph6.4 kmh 30.13 in1020.3 mb 0.01 in0.3 mm 0.00 in0.0 mm 0.16 in4.1 mm
07:03 PM 64.5°F18.1°C 63.6°F17.6°C 97% Calm Calm 4.0 mph6.4 kmh 30.13 in1020.3 mb 0.02 in0.5 mm 0.01 in0.3 mm 0.17 in4.3 mm
07:08 PM 64.4°F18.0°C 63.5°F17.5°C 97% Calm Calm 2.0 mph3.2 kmh 30.13 in1020.3 mb 0.02 in0.5 mm 0.00 in0.0 mm 0.17 in4.3 mm
07:13 PM 64.4°F18.0°C 63.5°F17.5°C 97% Calm Calm 1.0 mph1.6 kmh 30.13 in1020.3 mb 0.02 in0.5 mm 0.00 in0.0 mm 0.17 in4.3 mm
07:18 PM 64.4°F18.0°C 63.5°F17.5°C 97% Calm Calm -- 30.13 in1020.3 mb 0.02 in0.5 mm 0.00 in0.0 mm 0.17 in4.3 mm
07:23 PM 64.3°F17.9°C 63.7°F17.6°C 98% Calm Calm -- 30.13 in1020.3 mb 0.02 in0.5 mm 0.00 in0.0 mm 0.17 in4.3 mm
07:28 PM 64.3°F17.9°C 63.7°F17.6°C 98% Calm Calm -- 30.13 in1020.3 mb 0.02 in0.5 mm 0.00 in0.0 mm 0.17 in4.3 mm
07:33 PM 64.2°F17.9°C 63.6°F17.6°C 98% Calm Calm -- 30.13 in1020.3 mb 0.02 in0.5 mm 0.00 in0.0 mm 0.17 in4.3 mm
07:38 PM 64.1°F17.8°C 63.5°F17.5°C 98% Calm Calm -- 30.13 in1020.3 mb 0.01 in0.3 mm 0.00 in0.0 mm 0.17 in4.3 mm
07:43 PM 64.1°F17.8°C 63.5°F17.5°C 98% Calm Calm -- 30.13 in1020.3 mb 0.01 in0.3 mm 0.00 in0.0 mm 0.17 in4.3 mm
07:48 PM 64.1°F17.8°C 63.5°F17.5°C 98% Calm Calm 1.0 mph1.6 kmh 30.14 in1020.7 mb 0.01 in0.3 mm 0.00 in0.0 mm 0.17 in4.3 mm
07:53 PM 64.1°F17.8°C 63.5°F17.5°C 98% Calm Calm 1.0 mph1.6 kmh 30.14 in1020.7 mb 0.01 in0.3 mm 0.00 in0.0 mm 0.17 in4.3 mm
07:58 PM 64.1°F17.8°C 63.5°F17.5°C 98% Calm Calm 1.0 mph1.6 kmh 30.14 in1020.7 mb 0.01 in0.3 mm 0.00 in0.0 mm 0.17 in4.3 mm
08:03 PM 64.1°F17.8°C 63.5°F17.5°C 98% Calm Calm -- 30.14 in1020.7 mb 0.00 in0.0 mm 0.00 in0.0 mm 0.17 in4.3 mm
08:08 PM 64.1°F17.8°C 63.5°F17.5°C 98% 1.0 mph W1.6 kmh W 1.0 mph1.6 kmh 30.15 in1021.0 mb 0.00 in0.0 mm 0.00 in0.0 mm 0.17 in4.3 mm
08:13 PM 64.1°F17.8°C 63.5°F17.5°C 98% Calm Calm 1.0 mph1.6 kmh 30.15 in1021.0 mb 0.00 in0.0 mm 0.00 in0.0 mm 0.17 in4.3 mm
08:18 PM 64.1°F17.8°C 63.5°F17.5°C 98% 1.0 mph W1.6 kmh W 1.0 mph1.6 kmh 30.15 in1021.0 mb 0.00 in0.0 mm 0.00 in0.0 mm 0.17 in4.3 mm
08:23 PM 64.0°F17.8°C 63.4°F17.4°C 98% Calm Calm 1.0 mph1.6 kmh 30.15 in1021.0 mb 0.00 in0.0 mm 0.00 in0.0 mm 0.17 in4.3 mm
08:28 PM 64.0°F17.8°C 63.4°F17.4°C 98% Calm Calm 1.0 mph1.6 kmh 30.15 in1021.0 mb 0.00 in0.0 mm 0.00 in0.0 mm 0.17 in4.3 mm
08:33 PM 64.0°F17.8°C 63.4°F17.4°C 98% Calm Calm 1.0 mph1.6 kmh 30.15 in1021.0 mb 0.00 in0.0 mm 0.00 in0.0 mm 0.17 in4.3 mm
08:38 PM 64.0°F17.8°C 63.4°F17.4°C 98% Calm Calm -- 30.15 in1021.0 mb 0.00 in0.0 mm 0.00 in0.0 mm 0.17 in4.3 mm
08:43 PM 64.0°F17.8°C 63.4°F17.4°C 98% Calm Calm -- 30.15 in1021.0 mb 0.00 in0.0 mm 0.00 in0.0 mm 0.17 in4.3 mm
08:48 PM 63.9°F17.7°C 63.3°F17.4°C 98% Calm Calm -- 30.15 in1021.0 mb 0.00 in0.0 mm 0.00 in0.0 mm 0.17 in4.3 mm
08:53 PM 63.9°F17.7°C 63.3°F17.4°C 98% Calm Calm -- 30.15 in1021.0 mb 0.00 in0.0 mm 0.00 in0.0 mm 0.17 in4.3 mm
08:58 PM 63.9°F17.7°C 63.3°F17.4°C 98% Calm Calm -- 30.15 in1021.0 mb 0.00 in0.0 mm 0.00 in0.0 mm 0.17 in4.3 mm
09:03 PM 64.0°F17.8°C 63.4°F17.4°C 98% Calm Calm -- 30.15 in1021.0 mb 0.00 in0.0 mm 0.00 in0.0 mm 0.17 in4.3 mm
09:08 PM 63.9°F17.7°C 63.3°F17.4°C 98% Calm Calm -- 30.16 in1021.3 mb 0.00 in0.0 mm 0.00 in0.0 mm 0.17 in4.3 mm
09:13 PM 63.9°F17.7°C 63.3°F17.4°C 98% Calm Calm -- 30.16 in1021.3 mb 0.00 in0.0 mm 0.00 in0.0 mm 0.17 in4.3 mm
09:18 PM 64.0°F17.8°C 63.4°F17.4°C 98% Calm Calm 1.0 mph1.6 kmh 30.16 in1021.3 mb 0.00 in0.0 mm 0.00 in0.0 mm 0.17 in4.3 mm
09:23 PM 64.0°F17.8°C 63.4°F17.4°C 98% Calm Calm 1.0 mph1.6 kmh 30.16 in1021.3 mb 0.00 in0.0 mm 0.00 in0.0 mm 0.17 in4.3 mm
09:28 PM 64.0°F17.8°C 63.4°F17.4°C 98% Calm Calm 1.0 mph1.6 kmh 30.16 in1021.3 mb 0.00 in0.0 mm 0.00 in0.0 mm 0.17 in4.3 mm
09:33 PM 63.9°F17.7°C 63.3°F17.4°C 98% Calm Calm -- 30.16 in1021.3 mb 0.00 in0.0 mm 0.00 in0.0 mm 0.17 in4.3 mm
09:39 PM 63.9°F17.7°C 63.3°F17.4°C 98% Calm Calm -- 30.15 in1021.0 mb 0.00 in0.0 mm 0.00 in0.0 mm 0.17 in4.3 mm
09:44 PM 63.9°F17.7°C 63.3°F17.4°C 98% Calm Calm -- 30.15 in1021.0 mb 0.00 in0.0 mm 0.00 in0.0 mm 0.17 in4.3 mm
09:49 PM 63.9°F17.7°C 63.3°F17.4°C 98% Calm Calm -- 30.15 in1021.0 mb 0.00 in0.0 mm 0.00 in0.0 mm 0.17 in4.3 mm
09:54 PM 63.9°F17.7°C 63.3°F17.4°C 98% Calm Calm -- 30.15 in1021.0 mb 0.00 in0.0 mm 0.00 in0.0 mm 0.17 in4.3 mm
09:59 PM 63.9°F17.7°C 63.3°F17.4°C 98% Calm Calm -- 30.15 in1021.0 mb 0.00 in0.0 mm 0.00 in0.0 mm 0.17 in4.3 mm
10:03 PM 63.9°F17.7°C 63.3°F17.4°C 98% Calm Calm -- 30.15 in1021.0 mb 0.00 in0.0 mm 0.00 in0.0 mm 0.17 in4.3 mm
10:09 PM 63.9°F17.7°C 63.3°F17.4°C 98% Calm Calm -- 30.15 in1021.0 mb 0.00 in0.0 mm 0.00 in0.0 mm 0.17 in4.3 mm
10:14 PM 63.9°F17.7°C 63.3°F17.4°C 98% Calm Calm -- 30.15 in1021.0 mb 0.00 in0.0 mm 0.00 in0.0 mm 0.17 in4.3 mm
10:19 PM 63.9°F17.7°C 63.3°F17.4°C 98% Calm Calm -- 30.15 in1021.0 mb 0.00 in0.0 mm 0.00 in0.0 mm 0.17 in4.3 mm
10:24 PM 63.9°F17.7°C 63.3°F17.4°C 98% Calm Calm -- 30.15 in1021.0 mb 0.00 in0.0 mm 0.00 in0.0 mm 0.17 in4.3 mm
10:29 PM 63.9°F17.7°C 63.3°F17.4°C 98% Calm Calm -- 30.15 in1021.0 mb 0.00 in0.0 mm 0.00 in0.0 mm 0.17 in4.3 mm
10:34 PM 63.8°F17.7°C 63.2°F17.3°C 98% Calm Calm -- 30.15 in1021.0 mb 0.00 in0.0 mm 0.00 in0.0 mm 0.17 in4.3 mm
10:39 PM 63.8°F17.7°C 63.2°F17.3°C 98% Calm Calm -- 30.15 in1021.0 mb 0.00 in0.0 mm 0.00 in0.0 mm 0.17 in4.3 mm
10:44 PM 63.7°F17.6°C 63.1°F17.3°C 98% Calm Calm -- 30.15 in1021.0 mb 0.00 in0.0 mm 0.00 in0.0 mm 0.17 in4.3 mm
10:48 PM 63.7°F17.6°C 63.1°F17.3°C 98% Calm Calm -- 30.14 in1020.7 mb 0.00 in0.0 mm 0.00 in0.0 mm 0.17 in4.3 mm
10:53 PM 63.7°F17.6°C 63.1°F17.3°C 98% Calm Calm -- 30.14 in1020.7 mb 0.00 in0.0 mm 0.00 in0.0 mm 0.17 in4.3 mm
10:58 PM 63.6°F17.6°C 63.0°F17.2°C 98% Calm Calm -- 30.14 in1020.7 mb 0.00 in0.0 mm 0.00 in0.0 mm 0.17 in4.3 mm
11:03 PM 63.5°F17.5°C 62.9°F17.2°C 98% Calm Calm -- 30.15 in1021.0 mb 0.00 in0.0 mm 0.00 in0.0 mm 0.17 in4.3 mm
11:08 PM 63.5°F17.5°C 62.9°F17.2°C 98% Calm Calm -- 30.14 in1020.7 mb 0.00 in0.0 mm 0.00 in0.0 mm 0.17 in4.3 mm
11:13 PM 63.5°F17.5°C 62.9°F17.2°C 98% Calm Calm -- 30.14 in1020.7 mb 0.00 in0.0 mm 0.00 in0.0 mm 0.17 in4.3 mm
11:18 PM 63.5°F17.5°C 62.9°F17.2°C 98% Calm Calm -- 30.14 in1020.7 mb 0.00 in0.0 mm 0.00 in0.0 mm 0.17 in4.3 mm
11:23 PM 63.5°F17.5°C 62.9°F17.2°C 98% Calm Calm -- 30.14 in1020.7 mb 0.00 in0.0 mm 0.00 in0.0 mm 0.17 in4.3 mm
11:28 PM 63.5°F17.5°C 62.9°F17.2°C 98% Calm Calm -- 30.14 in1020.7 mb 0.00 in0.0 mm 0.00 in0.0 mm 0.17 in4.3 mm
11:33 PM 63.4°F17.4°C 62.8°F17.1°C 98% Calm Calm -- 30.14 in1020.7 mb 0.00 in0.0 mm 0.00 in0.0 mm 0.17 in4.3 mm
11:38 PM 63.4°F17.4°C 62.8°F17.1°C 98% 1.0 mph SW1.6 kmh SW 1.0 mph1.6 kmh 30.14 in1020.7 mb 0.00 in0.0 mm 0.00 in0.0 mm 0.17 in4.3 mm
11:43 PM 63.4°F17.4°C 62.8°F17.1°C 98% Calm Calm 1.0 mph1.6 kmh 30.14 in1020.7 mb 0.00 in0.0 mm 0.00 in0.0 mm 0.17 in4.3 mm
11:48 PM 63.4°F17.4°C 62.8°F17.1°C 98% Calm Calm 1.0 mph1.6 kmh 30.14 in1020.7 mb 0.00 in0.0 mm 0.00 in0.0 mm 0.17 in4.3 mm
11:53 PM 63.4°F17.4°C 62.8°F17.1°C 98% Calm Calm 1.0 mph1.6 kmh 30.14 in1020.7 mb 0.00 in0.0 mm 0.00 in0.0 mm 0.17 in4.3 mm
11:58 PM 63.3°F17.4°C 62.7°F17.1°C 98% Calm Calm -- 30.14 in1020.7 mb 0.00 in0.0 mm 0.00 in0.0 mm 0.17 in4.3 mm